createdAt,value
2023-02-11T00:01:44.895Z,102809.88
2023-02-11T00:04:11.259Z,102821.84
2023-02-11T00:06:37.879Z,102824.06
2023-02-11T00:09:05.155Z,102819.59
2023-02-11T00:11:31.585Z,102817.13
2023-02-11T00:14:00.284Z,102814.69
2023-02-11T00:16:27.812Z,102811.34
2023-02-11T00:18:54.196Z,102816.69
2023-02-11T00:21:25.986Z,102809.53
2023-02-11T00:23:53.501Z,102806.97
2023-02-11T00:26:25.532Z,102806.31
2023-02-11T00:28:53.253Z,102806.41
2023-02-11T00:31:21.911Z,102790.81
2023-02-11T00:33:48.765Z,102786.91
2023-02-11T00:36:22.274Z,102795.94
2023-02-11T00:38:50.253Z,102785.03
2023-02-11T00:41:17.593Z,102789.25
2023-02-11T00:43:44.861Z,102779.88
2023-02-11T00:46:11.781Z,102777.22
2023-02-11T00:48:38.185Z,102780.56
2023-02-11T00:51:05.283Z,102772.88
2023-02-11T00:53:32.614Z,102782.56
2023-02-11T00:55:59.063Z,102790.38
2023-02-11T00:58:25.420Z,102778.97
2023-02-11T01:00:52.437Z,102770.28
2023-02-11T01:03:18.844Z,102760.59
2023-02-11T01:05:45.234Z,102753.13
2023-02-11T01:08:11.700Z,102774.88
2023-02-11T01:10:38.338Z,102767.94
2023-02-11T01:13:06.437Z,102758.69
2023-02-11T01:15:33.454Z,102772.31
2023-02-11T01:17:59.794Z,102772.31
2023-02-11T01:20:27.651Z,102767.38
2023-02-11T01:22:54.160Z,102773.06
2023-02-11T01:25:20.512Z,102755.13
2023-02-11T01:27:46.905Z,102751.88
2023-02-11T01:30:14.304Z,102756.44
2023-02-11T01:32:40.757Z,102756.13
2023-02-11T01:35:07.674Z,102767.94
2023-02-11T01:37:34.345Z,102769.72
2023-02-11T01:40:10.737Z,102776.66
2023-02-11T01:42:37.143Z,102767.16
2023-02-11T01:45:41.817Z,102755.88
2023-02-11T01:48:11.041Z,102757.69
2023-02-11T01:50:40.667Z,102754.91
2023-02-11T01:53:27.291Z,102752.56
2023-02-11T01:56:21.255Z,102741.63
2023-02-11T01:58:51.549Z,102739.94
2023-02-11T02:01:23.624Z,102740.50
2023-02-11T02:03:54.225Z,102752.00
2023-02-11T02:06:34.653Z,102739.16
2023-02-11T02:09:09.517Z,102753.69
2023-02-11T02:11:36.274Z,102740.34
2023-02-11T02:14:03.419Z,102741.47
2023-02-11T02:16:33.620Z,102732.31
2023-02-11T02:19:21.768Z,102733.41
2023-02-11T02:22:18.270Z,102730.31
2023-02-11T02:25:00.678Z,102727.75
2023-02-11T02:27:40.090Z,102717.47
2023-02-11T02:30:28.696Z,102715.72
2023-02-11T02:33:24.255Z,102713.16
2023-02-11T02:36:07.213Z,102702.53
2023-02-11T02:38:41.680Z,102691.34
2023-02-11T02:41:15.597Z,102692.16
2023-02-11T02:43:45.327Z,102687.13
2023-02-11T02:46:26.597Z,102688.88
2023-02-11T02:48:54.581Z,102682.56
2023-02-11T02:51:39.037Z,102686.81
2023-02-11T02:54:30.656Z,102682.47
2023-02-11T02:57:20.232Z,102677.44
2023-02-11T03:00:06.848Z,102675.75
2023-02-11T03:02:47.835Z,102670.31
2023-02-11T03:05:17.786Z,102673.09
2023-02-11T03:07:48.451Z,102674.88
2023-02-11T03:10:30.082Z,102672.31
2023-02-11T03:12:57.546Z,102680.00
2023-02-11T03:15:27.679Z,102668.16
2023-02-11T03:17:58.531Z,102676.88
2023-02-11T03:20:25.635Z,102676.97
2023-02-11T03:23:02.161Z,102677.84
2023-02-11T03:25:34.530Z,102676.25
2023-02-11T03:28:10.083Z,102675.69
2023-02-11T03:30:46.827Z,102681.63
2023-02-11T03:34:04.242Z,102668.41
2023-02-11T03:36:46.126Z,102651.34
2023-02-11T03:39:19.762Z,102662.69
2023-02-11T03:41:49.166Z,102635.56
2023-02-11T03:44:17.051Z,102634.19
2023-02-11T03:46:50.139Z,102628.16
2023-02-11T03:49:20.257Z,102629.03
2023-02-11T03:51:49.391Z,102635.28
2023-02-11T03:54:24.157Z,102631.72
2023-02-11T03:56:53.825Z,102632.72
2023-02-11T03:59:20.615Z,102633.69
2023-02-11T04:01:47.185Z,102640.63
2023-02-11T04:04:14.148Z,102641.91
2023-02-11T04:06:40.929Z,102649.72
2023-02-11T04:09:07.289Z,102656.06
2023-02-11T04:11:33.738Z,102653.59
2023-02-11T04:14:00.233Z,102653.69
2023-02-11T04:16:26.720Z,102655.25
2023-02-11T04:18:53.257Z,102662.94
2023-02-11T04:21:19.581Z,102654.66
2023-02-11T04:23:46.064Z,102651.41
2023-02-11T04:26:12.392Z,102652.09
2023-02-11T04:28:38.935Z,102651.88
2023-02-11T04:31:05.589Z,102653.19
2023-02-11T04:33:32.117Z,102669.88
2023-02-11T04:35:58.457Z,102660.28
2023-02-11T04:38:24.825Z,102667.69
2023-02-11T04:40:51.369Z,102654.94
2023-02-11T04:43:17.882Z,102655.16
2023-02-11T04:45:44.204Z,102653.78
2023-02-11T04:48:10.589Z,102664.94
2023-02-11T04:50:36.929Z,102664.94
2023-02-11T04:53:03.483Z,102666.25
2023-02-11T04:55:29.842Z,102662.56
2023-02-11T04:57:56.236Z,102656.84
2023-02-11T05:00:22.820Z,102664.47
2023-02-11T05:02:49.449Z,102671.09
2023-02-11T05:05:15.790Z,102676.81
2023-02-11T05:07:42.287Z,102677.59
2023-02-11T05:10:08.875Z,102680.94
2023-02-11T05:12:35.383Z,102680.94
2023-02-11T05:15:01.736Z,102679.97
2023-02-11T05:17:28.140Z,102675.13
2023-02-11T05:19:54.465Z,102671.78
2023-02-11T05:22:22.097Z,102666.34
2023-02-11T05:24:48.753Z,102665.13
2023-02-11T05:27:15.257Z,102663.47
2023-02-11T05:29:41.596Z,102667.59
2023-02-11T05:32:09.008Z,102670.16
2023-02-11T05:34:36.265Z,102669.50
2023-02-11T05:37:02.643Z,102665.13
2023-02-11T05:39:29.177Z,102656.44
2023-02-11T05:41:55.523Z,102668.19
2023-02-11T05:44:21.971Z,102657.03
2023-02-11T05:46:49.238Z,102657.22
2023-02-11T05:49:17.064Z,102653.88
2023-02-11T05:51:43.422Z,102650.50
2023-02-11T05:54:09.816Z,102640.22
2023-02-11T05:56:36.160Z,102640.22
2023-02-11T05:59:02.744Z,102649.53
2023-02-11T06:01:29.271Z,102657.22
2023-02-11T06:03:55.790Z,102661.69
2023-02-11T06:06:22.208Z,102650.50
2023-02-11T06:08:48.839Z,102645.59
2023-02-11T06:11:16.178Z,102645.59
2023-02-11T06:13:42.922Z,102643.03
2023-02-11T06:16:09.905Z,102623.44
2023-02-11T06:18:36.450Z,102614.97
2023-02-11T06:21:06.894Z,102620.09
2023-02-11T06:23:33.282Z,102622.88
2023-02-11T06:26:04.752Z,102629.06
2023-02-11T06:28:31.738Z,102636.59
2023-02-11T06:30:58.955Z,102654.88
2023-02-11T06:33:25.556Z,102655.16
2023-02-11T06:35:52.267Z,102654.97
2023-02-11T06:38:18.834Z,102660.91
2023-02-11T06:40:49.678Z,102659.13
2023-02-11T06:43:16.584Z,102675.59
2023-02-11T06:45:43.081Z,102666.72
2023-02-11T06:48:09.598Z,102674.53
2023-02-11T06:50:35.939Z,102676.91
2023-02-11T06:53:02.354Z,102673.53
2023-02-11T06:55:28.858Z,102678.19
2023-02-11T06:57:55.219Z,102681.47
2023-02-11T07:00:21.623Z,102679.78
2023-02-11T07:02:47.992Z,102687.69
2023-02-11T07:05:14.574Z,102683.03
2023-02-11T07:07:40.918Z,102679.19
2023-02-11T07:10:08.376Z,102683.22
2023-02-11T07:12:34.709Z,102682.34
2023-02-11T07:15:01.260Z,102689.38
2023-02-11T07:17:27.605Z,102697.16
2023-02-11T07:19:54.058Z,102697.16
2023-02-11T07:22:20.429Z,102711.00
2023-02-11T07:24:46.921Z,102711.88
2023-02-11T07:27:13.444Z,102704.16
2023-02-11T07:29:41.448Z,102713.75
2023-02-11T07:32:07.868Z,102700.81
2023-02-11T07:34:34.457Z,102701.50
2023-02-11T07:37:00.827Z,102704.25
2023-02-11T07:39:27.562Z,102723.84
2023-02-11T07:41:54.325Z,102722.16
2023-02-11T07:44:20.728Z,102723.66
2023-02-11T07:46:49.482Z,102728.50
2023-02-11T07:49:15.999Z,102734.63
2023-02-11T07:51:42.335Z,102745.69
2023-02-11T07:54:11.075Z,102746.59
2023-02-11T07:56:37.445Z,102739.06
2023-02-11T07:59:03.986Z,102754.19
2023-02-11T08:01:31.052Z,102760.22
2023-02-11T08:03:59.438Z,102762.19
2023-02-11T08:06:28.113Z,102766.75
2023-02-11T08:08:54.753Z,102767.72
2023-02-11T08:11:26.079Z,102772.66
2023-02-11T08:13:53.576Z,102769.53
2023-02-11T08:16:32.484Z,102764.78
2023-02-11T08:19:01.700Z,102766.38
2023-02-11T08:21:28.819Z,102765.38
2023-02-11T08:23:55.879Z,102764.69
2023-02-11T08:26:25.473Z,102764.78
2023-02-11T08:28:53.617Z,102761.53
2023-02-11T08:31:23.562Z,102765.56
2023-02-11T08:33:50.407Z,102767.25
2023-02-11T08:36:19.681Z,102768.31
2023-02-11T08:38:47.006Z,102775.47
2023-02-11T08:41:16.984Z,102771.13
2023-02-11T08:43:44.567Z,102789.22
2023-02-11T08:46:14.197Z,102795.13
2023-02-11T08:48:40.560Z,102796.94
2023-02-11T08:51:14.120Z,102790.78
2023-02-11T08:53:40.514Z,102798.00
2023-02-11T08:56:07.347Z,102802.16
2023-02-11T08:58:33.686Z,102807.31
2023-02-11T09:01:00.400Z,102812.66
2023-02-11T09:03:26.932Z,102815.03
2023-02-11T09:05:53.462Z,102809.41
2023-02-11T09:08:20.612Z,102815.22
2023-02-11T09:10:47.034Z,102802.38
2023-02-11T09:13:13.586Z,102815.22
2023-02-11T09:15:39.960Z,102814.31
2023-02-11T09:18:06.361Z,102814.22
2023-02-11T09:20:32.886Z,102820.50
2023-02-11T09:22:59.518Z,102829.19
2023-02-11T09:25:25.983Z,102826.53
2023-02-11T09:27:53.685Z,102821.66
2023-02-11T09:30:20.329Z,102823.47
2023-02-11T09:32:46.663Z,102822.88
2023-02-11T09:35:13.257Z,102828.13
2023-02-11T09:37:39.601Z,102816.03
2023-02-11T09:40:06.575Z,102808.53
2023-02-11T09:42:49.521Z,102814.97
2023-02-11T09:45:20.549Z,102825.34
2023-02-11T09:47:56.608Z,102824.66
2023-02-11T09:50:29.278Z,102821.97
2023-02-11T09:53:16.854Z,102820.41
2023-02-11T09:55:46.864Z,102819.63
2023-02-11T09:58:16.511Z,102821.88
2023-02-11T10:01:05.875Z,102822.09
2023-02-11T10:03:48.063Z,102812.88
2023-02-11T10:06:36.593Z,102823.84
2023-02-11T10:09:24.139Z,102838.63
2023-02-11T10:12:02.564Z,102838.63
2023-02-11T10:15:07.848Z,102845.75
2023-02-11T10:18:02.112Z,102842.44
2023-02-11T10:20:46.427Z,102841.66
2023-02-11T10:23:22.259Z,102853.06
2023-02-11T10:25:52.802Z,102851.47
2023-02-11T10:28:27.966Z,102860.78
2023-02-11T10:30:59.513Z,102863.44
2023-02-11T10:33:34.333Z,102866.91
2023-02-11T10:36:00.719Z,102874.81
2023-02-11T10:38:27.783Z,102874.91
2023-02-11T10:40:54.182Z,102876.50
2023-02-11T10:43:26.244Z,102880.66
2023-02-11T10:45:54.658Z,102871.06
2023-02-11T10:48:42.704Z,102876.13
2023-02-11T10:51:21.101Z,102874.25
2023-02-11T10:54:11.960Z,102873.66
2023-02-11T10:56:44.492Z,102862.75
2023-02-11T10:59:30.433Z,102864.53
2023-02-11T11:02:04.284Z,102857.69
2023-02-11T11:04:30.641Z,102856.41
2023-02-11T11:07:10.597Z,102850.59
2023-02-11T11:09:55.747Z,102856.81
2023-02-11T11:12:48.402Z,102868.91
2023-02-11T11:15:21.938Z,102867.69
2023-02-11T11:18:20.990Z,102875.31
2023-02-11T11:21:00.775Z,102870.25
2023-02-11T11:23:29.787Z,102873.31
2023-02-11T11:26:08.242Z,102866.63
2023-02-11T11:28:46.919Z,102862.44
2023-02-11T11:31:18.967Z,102862.53
2023-02-11T11:33:47.388Z,102861.38
2023-02-11T11:36:19.855Z,102863.75
2023-02-11T11:38:52.374Z,102853.56
2023-02-11T11:41:32.879Z,102864.72
2023-02-11T11:44:00.792Z,102862.16
2023-02-11T11:46:31.474Z,102869.28
2023-02-11T11:49:12.182Z,102864.50
2023-02-11T11:51:41.919Z,102864.72
2023-02-11T11:54:13.905Z,102867.28
2023-02-11T11:56:54.696Z,102857.09
2023-02-11T11:59:22.220Z,102859.56
2023-02-11T12:01:48.552Z,102864.72
2023-02-11T12:04:28.723Z,102862.22
2023-02-11T12:07:13.563Z,102865.63
2023-02-11T12:10:04.983Z,102867.38
2023-02-11T12:12:46.782Z,102867.28
2023-02-11T12:15:29.865Z,102871.25
2023-02-11T12:18:36.030Z,102872.91
2023-02-11T12:21:24.729Z,102880.63
2023-02-11T12:24:03.252Z,102889.75
2023-02-11T12:26:42.470Z,102894.22
2023-02-11T12:29:24.187Z,102899.56
2023-02-11T12:32:07.911Z,102898.75
2023-02-11T12:34:55.347Z,102896.25
2023-02-11T12:37:30.623Z,102897.28
2023-02-11T12:40:18.461Z,102907.66
2023-02-11T12:43:18.687Z,102898.34
2023-02-11T12:46:11.769Z,102901.31
2023-02-11T12:48:51.432Z,102909.84
2023-02-11T12:51:42.048Z,102896.69
2023-02-11T12:54:19.754Z,102899.38
2023-02-11T12:57:35.645Z,102887.47
2023-02-11T13:00:05.047Z,102880.81
2023-02-11T13:02:56.168Z,102880.81
2023-02-11T13:05:25.050Z,102876.69
2023-02-11T13:08:14.108Z,102882.72
2023-02-11T13:10:43.140Z,102874.97
2023-02-11T13:13:20.972Z,102877.56
2023-02-11T13:16:07.665Z,102875.16
2023-02-11T13:18:49.425Z,102881.22
2023-02-11T13:21:15.827Z,102889.47
2023-02-11T13:24:07.552Z,102884.50
2023-02-11T13:26:47.458Z,102893.19
2023-02-11T13:29:32.441Z,102891.63
2023-02-11T13:32:11.595Z,102901.94
2023-02-11T13:34:43.846Z,102899.44
2023-02-11T13:37:26.593Z,102893.72
2023-02-11T13:40:23.784Z,102889.63
2023-02-11T13:42:57.024Z,102892.19
2023-02-11T13:45:29.175Z,102902.88
2023-02-11T13:48:01.336Z,102898.00
2023-02-11T13:50:30.291Z,102904.75
2023-02-11T13:53:00.641Z,102897.91
2023-02-11T13:55:27.943Z,102903.56
2023-02-11T13:58:06.208Z,102909.72
2023-02-11T14:00:35.660Z,102910.59
2023-02-11T14:03:29.766Z,102914.78
2023-02-11T14:06:26.810Z,102917.72
2023-02-11T14:08:59.499Z,102913.19
2023-02-11T14:12:14.472Z,102906.22
2023-02-11T14:15:20.590Z,102912.38
2023-02-11T14:17:47.166Z,102902.00
2023-02-11T14:20:34.484Z,102913.97
2023-02-11T14:23:01.186Z,102914.88
2023-02-11T14:25:27.576Z,102917.72
2023-02-11T14:28:04.825Z,102921.78
2023-02-11T14:30:44.251Z,102919.34
2023-02-11T14:33:25.954Z,102932.22
2023-02-11T14:36:33.658Z,102927.53
2023-02-11T14:39:25.104Z,102934.16
2023-02-11T14:41:52.529Z,102934.16
2023-02-11T14:44:27.842Z,102947.84
2023-02-11T14:46:55.017Z,102954.84
2023-02-11T14:49:28.686Z,102956.38
2023-02-11T14:52:17.072Z,102966.28
2023-02-11T14:54:45.199Z,102981.00
2023-02-11T14:57:20.085Z,102978.97
2023-02-11T14:59:55.168Z,102988.34
2023-02-11T15:02:26.096Z,102996.06
2023-02-11T15:04:52.590Z,103004.63
2023-02-11T15:07:18.950Z,103007.78
2023-02-11T15:09:52.630Z,102999.84
2023-02-11T15:12:27.965Z,103013.63
2023-02-11T15:15:00.411Z,103014.72
2023-02-11T15:17:31.765Z,103017.41
2023-02-11T15:20:01.757Z,103015.22
2023-02-11T15:22:32.965Z,103018.66
2023-02-11T15:25:10.612Z,103017.97
2023-02-11T15:27:42.138Z,103016.59
2023-02-11T15:30:23.484Z,103011.22
2023-02-11T15:33:00.612Z,103019.53
2023-02-11T15:35:40.896Z,103024.50
2023-02-11T15:38:07.630Z,103027.88
2023-02-11T15:40:36.783Z,103027.97
2023-02-11T15:43:06.355Z,103026.28
2023-02-11T15:45:34.475Z,103018.66
2023-02-11T15:48:24.251Z,103009.25
2023-02-11T15:50:58.663Z,103015.41
2023-02-11T15:53:29.888Z,103016.88
2023-02-11T15:56:14.611Z,103009.16
2023-02-11T15:58:43.559Z,103022.63
2023-02-11T16:01:10.824Z,103024.09
2023-02-11T16:03:37.415Z,103017.78
2023-02-11T16:06:17.287Z,103015.59
2023-02-11T16:08:56.492Z,103008.44
2023-02-11T16:11:33.548Z,103013.28
2023-02-11T16:14:01.507Z,103022.09
2023-02-11T16:16:31.590Z,103031.31
2023-02-11T16:19:06.079Z,103032.91
2023-02-11T16:21:45.225Z,103034.47
2023-02-11T16:24:21.296Z,103041.41
2023-02-11T16:26:50.312Z,103045.78
2023-02-11T16:29:21.952Z,103045.06
2023-02-11T16:31:50.248Z,103059.72
2023-02-11T16:34:25.435Z,103060.59
2023-02-11T16:36:52.756Z,103078.41
2023-02-11T16:39:22.338Z,103083.44
2023-02-11T16:41:50.629Z,103088.81
2023-02-11T16:44:17.752Z,103093.06
2023-02-11T16:46:44.858Z,103088.69
2023-02-11T16:49:22.586Z,103112.78
2023-02-11T16:51:51.709Z,103107.94
2023-02-11T16:54:19.191Z,103118.13
2023-02-11T16:56:45.909Z,103115.88
2023-02-11T16:59:12.698Z,103129.19
2023-02-11T17:01:40.969Z,103136.94
2023-02-11T17:04:13.087Z,103134.66
2023-02-11T17:06:39.465Z,103135.53
2023-02-11T17:09:06.705Z,103132.91
2023-02-11T17:11:33.127Z,103131.25
2023-02-11T17:13:59.448Z,103138.06
2023-02-11T17:16:27.632Z,103140.44
2023-02-11T17:18:54.749Z,103144.91
2023-02-11T17:21:21.125Z,103144.13
2023-02-11T17:23:47.460Z,103152.72
2023-02-11T17:26:13.832Z,103145.88
2023-02-11T17:28:40.207Z,103146.59
2023-02-11T17:31:08.529Z,103146.38
2023-02-11T17:33:36.249Z,103147.53
2023-02-11T17:36:07.710Z,103147.53
2023-02-11T17:38:35.252Z,103156.84
2023-02-11T17:41:03.111Z,103164.66
2023-02-11T17:43:29.479Z,103167.91
2023-02-11T17:45:56.075Z,103169.69
2023-02-11T17:48:22.441Z,103172.84
2023-02-11T17:50:48.858Z,103169.94
2023-02-11T17:53:15.425Z,103178.19
2023-02-11T17:55:42.114Z,103170.56
2023-02-11T17:58:08.443Z,103181.31
2023-02-11T18:00:34.824Z,103181.31
2023-02-11T18:03:03.800Z,103176.97
2023-02-11T18:05:34.772Z,103190.06
2023-02-11T18:08:01.145Z,103191.94
2023-02-11T18:10:27.632Z,103196.88
2023-02-11T18:12:54.078Z,103195.97
2023-02-11T18:15:20.474Z,103197.28
2023-02-11T18:17:46.827Z,103202.34
2023-02-11T18:20:13.636Z,103203.91
2023-02-11T18:22:40.918Z,103212.63
2023-02-11T18:25:08.685Z,103212.84
2023-02-11T18:27:35.102Z,103213.44
2023-02-11T18:30:01.508Z,103219.34
2023-02-11T18:32:27.897Z,103224.72
2023-02-11T18:34:54.275Z,103233.19
2023-02-11T18:37:20.706Z,103234.78
2023-02-11T18:39:47.090Z,103239.06
2023-02-11T18:42:13.635Z,103238.13
2023-02-11T18:44:40.334Z,103236.47
2023-02-11T18:47:06.902Z,103242.81
2023-02-11T18:49:35.580Z,103235.78
2023-02-11T18:52:02.560Z,103230.53
2023-02-11T18:54:28.908Z,103231.44
2023-02-11T18:56:55.271Z,103229.66
2023-02-11T18:59:21.609Z,103234.78
2023-02-11T19:01:48.148Z,103229.84
2023-02-11T19:04:19.626Z,103223.63
2023-02-11T19:06:49.444Z,103227.75
2023-02-11T19:09:19.338Z,103229.75
2023-02-11T19:11:54.131Z,103233.19
2023-02-11T19:14:26.541Z,103237.47
2023-02-11T19:16:56.300Z,103250.44
2023-02-11T19:19:25.676Z,103256.16
2023-02-11T19:21:52.406Z,103263.88
2023-02-11T19:24:19.779Z,103260.63
2023-02-11T19:26:48.085Z,103258.25
2023-02-11T19:29:14.804Z,103263.19
2023-02-11T19:31:41.698Z,103265.88
2023-02-11T19:34:08.202Z,103269.94
2023-02-11T19:36:34.984Z,103267.69
2023-02-11T19:39:02.779Z,103280.44
2023-02-11T19:41:29.778Z,103265.66
2023-02-11T19:43:56.716Z,103262.63
2023-02-11T19:46:24.811Z,103268.09
2023-02-11T19:48:52.013Z,103272.13
2023-02-11T19:51:19.364Z,103263.63
2023-02-11T19:53:46.653Z,103267.69
2023-02-11T19:56:14.355Z,103265.09
2023-02-11T19:58:41.754Z,103264.28
2023-02-11T20:01:15.134Z,103264.28
2023-02-11T20:03:42.673Z,103265.22
2023-02-11T20:06:14.759Z,103265.31
2023-02-11T20:08:41.497Z,103263.41
2023-02-11T20:11:10.974Z,103264.53
2023-02-11T20:13:38.305Z,103270.56
2023-02-11T20:16:13.903Z,103271.03
2023-02-11T20:18:40.630Z,103269.44
2023-02-11T20:21:12.983Z,103271.03
2023-02-11T20:23:40.624Z,103273.81
2023-02-11T20:26:09.090Z,103274.38
2023-02-11T20:28:36.432Z,103274.16
2023-02-11T20:31:04.136Z,103262.88
2023-02-11T20:33:31.199Z,103265.69
2023-02-11T20:36:00.497Z,103261.41
2023-02-11T20:38:27.975Z,103267.59
2023-02-11T20:40:55.108Z,103260.88
2023-02-11T20:43:22.333Z,103263.00
2023-02-11T20:45:48.921Z,103270.16
2023-02-11T20:48:15.354Z,103271.91
2023-02-11T20:50:41.722Z,103283.03
2023-02-11T20:53:08.138Z,103292.72
2023-02-11T20:55:38.100Z,103300.31
2023-02-11T20:58:07.954Z,103309.41
2023-02-11T21:00:35.549Z,103305.84
2023-02-11T21:03:01.934Z,103318.44
2023-02-11T21:05:30.911Z,103317.56
2023-02-11T21:07:57.388Z,103314.31
2023-02-11T21:10:23.795Z,103313.66
2023-02-11T21:12:50.149Z,103322.81
2023-02-11T21:15:16.896Z,103328.50
2023-02-11T21:17:43.226Z,103330.09
2023-02-11T21:20:10.132Z,103335.78
2023-02-11T21:22:36.557Z,103339.03
2023-02-11T21:25:03.058Z,103349.69
2023-02-11T21:27:33.161Z,103354.94
2023-02-11T21:30:01.330Z,103343.28
2023-02-11T21:32:28.046Z,103352.69
2023-02-11T21:34:54.445Z,103358.84
2023-02-11T21:37:21.220Z,103364.31
2023-02-11T21:39:47.606Z,103367.00
2023-02-11T21:42:13.949Z,103374.38
2023-02-11T21:44:40.473Z,103380.53
2023-02-11T21:47:06.907Z,103380.34
2023-02-11T21:49:33.359Z,103383.56
2023-02-11T21:52:00.031Z,103383.91
2023-02-11T21:54:31.887Z,103396.22
2023-02-11T21:56:59.654Z,103395.41
2023-02-11T21:59:26.049Z,103403.59
2023-02-11T22:01:52.382Z,103414.97
2023-02-11T22:04:18.824Z,103413.28
2023-02-11T22:06:45.250Z,103410.59
2023-02-11T22:09:11.641Z,103412.31
2023-02-11T22:11:38.365Z,103407.25
2023-02-11T22:14:05.352Z,103403.13
2023-02-11T22:16:31.805Z,103413.06
2023-02-11T22:18:58.890Z,103411.03
2023-02-11T22:21:25.627Z,103409.28
2023-02-11T22:23:52.108Z,103412.63
2023-02-11T22:26:21.837Z,103409.47
2023-02-11T22:28:49.088Z,103408.59
2023-02-11T22:31:18.125Z,103412.06
2023-02-11T22:33:45.063Z,103418.88
2023-02-11T22:36:25.994Z,103428.50
2023-02-11T22:38:53.715Z,103429.72
2023-02-11T22:41:20.802Z,103436.97
2023-02-11T22:43:48.093Z,103438.75
2023-02-11T22:46:16.703Z,103437.38
2023-02-11T22:48:43.803Z,103446.13
2023-02-11T22:51:12.820Z,103442.78
2023-02-11T22:53:39.201Z,103450.75
2023-02-11T22:56:08.198Z,103448.97
2023-02-11T22:58:36.049Z,103452.78
2023-02-11T23:01:03.256Z,103456.41
2023-02-11T23:03:31.125Z,103457.81
2023-02-11T23:05:59.269Z,103461.53
2023-02-11T23:08:26.789Z,103468.22
2023-02-11T23:10:53.423Z,103471.69
2023-02-11T23:13:19.865Z,103475.44
2023-02-11T23:15:47.403Z,103472.72
2023-02-11T23:18:14.263Z,103472.72
2023-02-11T23:20:43.530Z,103482.84
2023-02-11T23:23:09.875Z,103485.19
2023-02-11T23:25:44.374Z,103490.31
2023-02-11T23:28:11.870Z,103489.44
2023-02-11T23:30:39.352Z,103490.56
2023-02-11T23:33:05.850Z,103489.44
2023-02-11T23:35:32.289Z,103483.41
2023-02-11T23:37:58.697Z,103487.53
2023-02-11T23:40:25.074Z,103491.66
2023-02-11T23:42:51.656Z,103493.88
2023-02-11T23:45:18.117Z,103500.25
2023-02-11T23:47:45.025Z,103499.84
2023-02-11T23:50:11.596Z,103500.16
2023-02-11T23:52:37.925Z,103498.78
2023-02-11T23:55:04.815Z,103503.25
2023-02-11T23:57:34.658Z,103504.81
